Главная страница
METAR-TAF:

METAR-TAF

Аэропорты :

Синт-Эстатиус, Нидерландские Антильские острова

широта: 17-29N, долгота: 062-59W, высота над уровнем моря: 38 м

Текущие метеонаблюдения

Эта сводка был подготовлена 45 минут назад, в 12:55 UTC
Ветер 12 Узел от восточный, изменяющийся между северо-восточный и юго-восточный
Температура 28°C
Влажность 79%
Давление 1018 hPa

METAR: TNCE 231255Z AUTO 08012KT 050V130 //// // ///////// 28/24 Q1018 RE//

Время: 09:40 (13:40 UTC)


TAF: отсутствует

Метеонаблюдения и прогнозы для более 4000 аэропортов (сводки METAR и TAF).

Имеющиеся станции представлены на карте желтыми и красными точками.

Чтобы увидеть название станции, наведите на нее мышь.

Затем щелкните, чтобы увидеть метеонаблюдения и метеопрогнозы.

Управление картой: чтобы увеличить масштаб, щелкните зеленые кнопки с черным крестиком; чтобы уменьшить масштаб, щелкните зеленую кнопку с тире; для просмотра соседних карт щелкайте зеленые стрелки.


METAR-TAF: